createdAt,value
2023-04-16T00:01:09.139Z,8.12
2023-04-16T00:16:05.002Z,8.29
2023-04-16T00:31:01.358Z,8
2023-04-16T00:45:57.957Z,7.83
2023-04-16T01:00:54.268Z,8.32
2023-04-16T01:15:50.762Z,7.97
2023-04-16T01:30:46.768Z,8.1
2023-04-16T01:45:42.747Z,7.85
2023-04-16T02:00:38.588Z,7.94
2023-04-16T02:15:34.498Z,7.83
2023-04-16T02:30:30.804Z,7.9
2023-04-16T03:00:23.547Z,7.76
2023-04-16T03:15:19.486Z,7.85
2023-04-16T03:30:15.769Z,7.78
2023-04-16T03:45:12.196Z,7.79
2023-04-16T04:00:08.594Z,7.89
2023-04-16T04:15:04.618Z,7.84
2023-04-16T04:30:00.899Z,7.78
2023-04-16T04:44:57.359Z,7.77
2023-04-16T04:59:53.479Z,7.88
2023-04-16T05:14:50.159Z,7.95
2023-04-16T05:29:46.595Z,7.9
2023-04-16T05:44:43.039Z,7.98
2023-04-16T05:59:39.479Z,8.08
2023-04-16T06:14:35.023Z,8.08
2023-04-16T06:29:40.222Z,8.08
2023-04-16T06:44:27.410Z,8.15
2023-04-16T06:59:23.742Z,8.25
2023-04-16T07:14:20.686Z,8.38
2023-04-16T07:29:16.965Z,8.59
2023-04-16T07:44:13.305Z,8.53
2023-04-16T07:59:21.576Z,8.71
2023-04-16T08:14:05.830Z,8.89
2023-04-16T08:29:02.388Z,9.21
2023-04-16T08:43:58.713Z,9.2
2023-04-16T08:58:54.783Z,9.03
2023-04-16T09:13:51.095Z,9.09
2023-04-16T09:28:47.363Z,9.28
2023-04-16T09:43:43.719Z,9.38
2023-04-16T09:58:39.510Z,9.64
2023-04-16T10:13:36.122Z,10.35
2023-04-16T10:28:33.697Z,10.68
2023-04-16T10:43:29.928Z,10.88
2023-04-16T10:58:26.259Z,10.45
2023-04-16T11:13:22.339Z,10.76
2023-04-16T11:28:18.751Z,10.61
2023-04-16T11:43:15.680Z,10.83
2023-04-16T11:58:12.519Z,11.08
2023-04-16T12:13:08.529Z,11.05
2023-04-16T12:28:04.936Z,11.76
2023-04-16T12:43:01.695Z,11.5
2023-04-16T12:57:58.339Z,11.73
2023-04-16T13:12:54.616Z,12.06
2023-04-16T13:27:50.941Z,12.57
2023-04-16T13:42:47.810Z,13.27
2023-04-16T13:57:43.735Z,13.01
2023-04-16T14:12:40.132Z,13.33
2023-04-16T14:27:36.394Z,12.78
2023-04-16T14:42:32.465Z,13.3
2023-04-16T14:57:28.864Z,13.3
2023-04-16T15:12:25.036Z,12.92
2023-04-16T15:27:21.069Z,13.05
2023-04-16T15:42:17.207Z,12.91
2023-04-16T15:57:13.188Z,13.2
2023-04-16T16:12:09.441Z,13.08
2023-04-16T16:27:05.555Z,12.99
2023-04-16T16:42:01.688Z,12.94
2023-04-16T16:56:57.408Z,12.82
2023-04-16T17:11:53.481Z,12.58
2023-04-16T17:26:49.690Z,12.49
2023-04-16T17:41:45.855Z,12.41
2023-04-16T17:56:42.189Z,12
2023-04-16T18:11:37.948Z,11.62
2023-04-16T18:26:36.020Z,11.43
2023-04-16T18:41:30.075Z,11.37
2023-04-16T18:56:26.009Z,11.26
2023-04-16T19:11:22.662Z,11.19
2023-04-16T19:26:18.821Z,11
2023-04-16T19:41:14.943Z,11.29
2023-04-16T19:56:11.435Z,10.85
2023-04-16T20:11:07.364Z,10.99
2023-04-16T20:26:03.584Z,10.99
2023-04-16T20:40:59.358Z,10.89
2023-04-16T20:55:55.251Z,10.86
2023-04-16T21:10:51.515Z,10.8
2023-04-16T21:25:47.835Z,10.95
2023-04-16T21:40:43.623Z,10.9
2023-04-16T21:55:40.424Z,10.89
2023-04-16T22:10:36.380Z,10.9
2023-04-16T22:25:32.891Z,10.84
2023-04-16T22:40:29.379Z,11.48
2023-04-16T22:55:25.565Z,11.41
2023-04-16T23:10:21.831Z,10.41
2023-04-16T23:25:17.982Z,10.27
2023-04-16T23:40:13.773Z,10.18
2023-04-16T23:55:10.037Z,10.37
